East York, Pennsylvania
Current Conditions -  °F | °C
As of 11:53 AM on Sunday 23 Nov 2014 (Local Time) from KTHV Reporting Station
Clear Clear  
Wind Chill: 52°   Ceiling: Unl
Heat Index: 52°   Visibility: 10mi
Dew Point: 23°   Wind: 3mph
Humidity: 32%   Direction: NA
Pressure: 30.14"   Gusts: NA
Location:  39.9768°N, 76.6853°W
Report Text: KTHV 231653Z AUTO VRB03KT 10SM CLR 11/M05 A3014 RMK AO2 SLP209 T01111050
Loading
Personal Weather Stations






























Interactive Weather Map New forecast layout! Learn more

10-Day Weather Forecast

Advertisements
Track Severe Weather on mobile